createdAt,value
2023-05-14T00:01:20.763Z,1007.32
2023-05-14T00:04:20.760Z,1007.38
2023-05-14T00:07:20.773Z,1007.37
2023-05-14T00:10:20.855Z,1007.38
2023-05-14T00:13:20.752Z,1007.35
2023-05-14T00:16:20.790Z,1007.35
2023-05-14T00:19:20.767Z,1007.31
2023-05-14T00:22:20.771Z,1007.32
2023-05-14T00:25:20.750Z,1007.3
2023-05-14T00:28:20.753Z,1007.27
2023-05-14T00:31:20.780Z,1007.22
2023-05-14T00:34:20.743Z,1007.16
2023-05-14T00:37:20.748Z,1007.16
2023-05-14T00:40:20.827Z,1007.08
2023-05-14T00:43:20.753Z,1007.12
2023-05-14T00:46:20.759Z,1007.08
2023-05-14T00:49:20.742Z,1007.04
2023-05-14T00:52:20.751Z,1007.07
2023-05-14T00:55:20.742Z,1007.08
2023-05-14T00:58:20.739Z,1007.09
2023-05-14T01:01:20.851Z,1007.07
2023-05-14T01:04:20.734Z,1007.06
2023-05-14T01:07:20.735Z,1007.02
2023-05-14T01:10:20.759Z,1006.99
2023-05-14T01:13:20.732Z,1007.01
2023-05-14T01:16:20.759Z,1007
2023-05-14T01:19:20.731Z,1006.97
2023-05-14T01:22:20.721Z,1006.96
2023-05-14T01:25:25.739Z,1006.93
2023-05-14T01:28:20.793Z,1006.94
2023-05-14T01:31:20.747Z,1006.95
2023-05-14T01:34:20.733Z,1006.95
2023-05-14T01:37:20.721Z,1006.96
2023-05-14T01:40:20.738Z,1006.98
2023-05-14T01:43:20.730Z,1006.99
2023-05-14T01:46:20.758Z,1006.95
2023-05-14T01:49:20.713Z,1006.96
2023-05-14T01:52:20.711Z,1006.95
2023-05-14T01:55:20.706Z,1006.91
2023-05-14T01:58:20.709Z,1006.93
2023-05-14T02:01:20.753Z,1006.94
2023-05-14T02:04:20.736Z,1006.9
2023-05-14T02:07:25.719Z,1006.87
2023-05-14T02:10:20.936Z,1006.91
2023-05-14T02:13:20.707Z,1006.83
2023-05-14T02:16:20.733Z,1006.82
2023-05-14T02:19:20.694Z,1006.84
2023-05-14T02:22:20.690Z,1006.77
2023-05-14T02:25:20.693Z,1006.81
2023-05-14T02:28:20.707Z,1006.81
2023-05-14T02:31:20.715Z,1006.75
2023-05-14T02:34:20.694Z,1006.73
2023-05-14T02:37:20.729Z,1006.76
2023-05-14T02:40:20.831Z,1006.69
2023-05-14T02:43:20.693Z,1006.65
2023-05-14T02:46:20.722Z,1006.65
2023-05-14T02:49:20.688Z,1006.65
2023-05-14T02:52:20.689Z,1006.61
2023-05-14T02:55:20.694Z,1006.65
2023-05-14T02:58:20.686Z,1006.67
2023-05-14T03:01:20.716Z,1006.68
2023-05-14T03:04:20.684Z,1006.67
2023-05-14T03:07:20.686Z,1006.65
2023-05-14T03:10:20.688Z,1006.67
2023-05-14T03:13:20.685Z,1006.66
2023-05-14T03:16:20.740Z,1006.67
2023-05-14T03:19:20.699Z,1006.67
2023-05-14T03:22:20.674Z,1006.64
2023-05-14T03:25:20.686Z,1006.59
2023-05-14T03:28:20.683Z,1006.57
2023-05-14T03:31:20.714Z,1006.59
2023-05-14T03:34:20.675Z,1006.59
2023-05-14T03:37:20.675Z,1006.6
2023-05-14T03:40:25.780Z,1006.6
2023-05-14T03:43:20.676Z,1006.6
2023-05-14T03:46:20.666Z,1006.58
2023-05-14T03:49:20.689Z,1006.59
2023-05-14T03:52:20.671Z,1006.58
2023-05-14T03:55:20.663Z,1006.56
2023-05-14T03:58:20.683Z,1006.56
2023-05-14T04:01:20.681Z,1006.54
2023-05-14T04:04:20.682Z,1006.57
2023-05-14T04:07:20.668Z,1006.57
2023-05-14T04:10:20.692Z,1006.57
2023-05-14T04:13:20.666Z,1006.6
2023-05-14T04:16:20.713Z,1006.6
2023-05-14T04:19:20.718Z,1006.62
2023-05-14T04:22:20.668Z,1006.6
2023-05-14T04:25:20.657Z,1006.65
2023-05-14T04:28:20.664Z,1006.63
2023-05-14T04:31:20.680Z,1006.67
2023-05-14T04:34:20.651Z,1006.72
2023-05-14T04:37:20.673Z,1006.71
2023-05-14T04:40:20.656Z,1006.73
2023-05-14T04:43:20.648Z,1006.72
2023-05-14T04:46:20.696Z,1006.77
2023-05-14T04:49:20.647Z,1006.74
2023-05-14T04:52:20.668Z,1006.75
2023-05-14T04:55:20.647Z,1006.79
2023-05-14T04:58:20.659Z,1006.81
2023-05-14T05:01:20.723Z,1006.79
2023-05-14T05:04:20.816Z,1006.85
2023-05-14T05:07:20.660Z,1006.86
2023-05-14T05:10:20.706Z,1006.85
2023-05-14T05:13:20.651Z,1006.82
2023-05-14T05:16:20.672Z,1006.82
2023-05-14T05:19:24.520Z,1006.85
2023-05-14T05:22:20.667Z,1006.86
2023-05-14T05:25:20.647Z,1006.84
2023-05-14T05:28:20.641Z,1006.88
2023-05-14T05:31:20.657Z,1006.87
2023-05-14T05:34:20.647Z,1006.91
2023-05-14T05:37:20.929Z,1006.88
2023-05-14T05:40:20.660Z,1006.84
2023-05-14T05:43:20.656Z,1006.87
2023-05-14T05:46:20.673Z,1006.89
2023-05-14T05:49:20.648Z,1006.82
2023-05-14T05:52:20.645Z,1006.81
2023-05-14T05:55:20.652Z,1006.83
2023-05-14T05:58:20.637Z,1006.8
2023-05-14T06:01:20.643Z,1006.79
2023-05-14T06:04:20.637Z,1006.8
2023-05-14T06:07:20.633Z,1006.82
2023-05-14T06:10:20.634Z,1006.79
2023-05-14T06:13:20.636Z,1006.83
2023-05-14T06:16:20.671Z,1006.82
2023-05-14T06:19:20.658Z,1006.81
2023-05-14T06:22:20.638Z,1006.82
2023-05-14T06:25:20.643Z,1006.84
2023-05-14T06:28:20.637Z,1006.8
2023-05-14T06:31:20.678Z,1006.79
2023-05-14T06:34:20.640Z,1006.77
2023-05-14T06:37:20.638Z,1006.77
2023-05-14T06:40:20.720Z,1006.75
2023-05-14T06:43:20.633Z,1006.76
2023-05-14T06:46:20.648Z,1006.79
2023-05-14T06:49:20.659Z,1006.83
2023-05-14T06:52:20.661Z,1006.84
2023-05-14T06:55:20.651Z,1006.79
2023-05-14T06:58:20.668Z,1006.81
2023-05-14T07:01:20.677Z,1006.73
2023-05-14T07:04:20.724Z,1006.69
2023-05-14T07:07:20.722Z,1006.67
2023-05-14T07:10:20.651Z,1006.68
2023-05-14T07:13:20.667Z,1006.74
2023-05-14T07:16:20.650Z,1006.73
2023-05-14T07:19:20.654Z,1006.68
2023-05-14T07:22:20.654Z,1006.63
2023-05-14T07:25:20.646Z,1006.54
2023-05-14T07:28:20.661Z,1006.54
2023-05-14T07:31:20.661Z,1006.52
2023-05-14T07:34:20.641Z,1006.49
2023-05-14T07:37:21.973Z,1006.49
2023-05-14T07:40:20.638Z,1006.44
2023-05-14T07:43:20.640Z,1006.43
2023-05-14T07:46:20.637Z,1006.39
2023-05-14T07:49:20.650Z,1006.42
2023-05-14T07:52:20.638Z,1006.37
2023-05-14T07:55:20.633Z,1006.32
2023-05-14T07:58:20.653Z,1006.33
2023-05-14T08:01:20.641Z,1006.31
2023-05-14T08:04:20.656Z,1006.29
2023-05-14T08:07:20.643Z,1006.25
2023-05-14T08:10:20.659Z,1006.24
2023-05-14T08:13:20.635Z,1006.2
2023-05-14T08:16:20.647Z,1006.18
2023-05-14T08:19:20.703Z,1006.21
2023-05-14T08:22:20.648Z,1006.21
2023-05-14T08:25:20.658Z,1006.2
2023-05-14T08:28:20.649Z,1006.1
2023-05-14T08:31:20.656Z,1006.09
2023-05-14T08:34:20.632Z,1006.12
2023-05-14T08:37:20.635Z,1006.1
2023-05-14T08:40:20.650Z,1006.04
2023-05-14T08:43:20.674Z,1005.99
2023-05-14T08:46:20.651Z,1005.97
2023-05-14T08:49:20.653Z,1005.96
2023-05-14T08:52:20.658Z,1005.93
2023-05-14T08:55:20.657Z,1005.9
2023-05-14T08:58:20.661Z,1005.86
2023-05-14T09:01:20.684Z,1005.9
2023-05-14T09:04:20.714Z,1005.87
2023-05-14T09:07:20.643Z,1005.82
2023-05-14T09:10:20.665Z,1005.8
2023-05-14T09:13:20.648Z,1005.78
2023-05-14T09:16:20.676Z,1005.78
2023-05-14T09:19:20.682Z,1005.79
2023-05-14T09:22:20.648Z,1005.73
2023-05-14T09:25:20.625Z,1005.69
2023-05-14T09:28:20.640Z,1005.7
2023-05-14T09:31:20.709Z,1005.7
2023-05-14T09:34:20.637Z,1005.7
2023-05-14T09:37:20.639Z,1005.69
2023-05-14T09:40:20.719Z,1005.71
2023-05-14T09:43:20.635Z,1005.66
2023-05-14T09:46:20.622Z,1005.69
2023-05-14T09:49:20.620Z,1005.67
2023-05-14T09:52:20.627Z,1005.69
2023-05-14T09:55:20.623Z,1005.65
2023-05-14T09:58:20.621Z,1005.66
2023-05-14T10:01:20.711Z,1005.67
2023-05-14T10:04:20.652Z,1005.68
2023-05-14T10:07:20.614Z,1005.71
2023-05-14T10:10:20.710Z,1005.71
2023-05-14T10:13:20.635Z,1005.67
2023-05-14T10:16:20.647Z,1005.68
2023-05-14T10:19:20.768Z,1005.61
2023-05-14T10:22:20.612Z,1005.66
2023-05-14T10:25:20.607Z,1005.66
2023-05-14T10:28:20.612Z,1005.62
2023-05-14T10:31:20.634Z,1005.63
2023-05-14T10:34:20.615Z,1005.63
2023-05-14T10:37:20.606Z,1005.58
2023-05-14T10:40:20.612Z,1005.6
2023-05-14T10:43:20.606Z,1005.57
2023-05-14T10:46:20.646Z,1005.55
2023-05-14T10:49:25.758Z,1005.55
2023-05-14T10:52:20.604Z,1005.52
2023-05-14T10:55:20.598Z,1005.49
2023-05-14T10:58:20.609Z,1005.48
2023-05-14T11:01:20.638Z,1005.47
2023-05-14T11:04:20.610Z,1005.42
2023-05-14T11:07:20.612Z,1005.37
2023-05-14T11:10:20.636Z,1005.32
2023-05-14T11:13:20.599Z,1005.26
2023-05-14T11:16:23.044Z,1005.24
2023-05-14T11:19:20.619Z,1005.19
2023-05-14T11:22:20.599Z,1005.17
2023-05-14T11:25:20.596Z,1005.21
2023-05-14T11:28:20.597Z,1005.19
2023-05-14T11:31:20.612Z,1005.14
2023-05-14T11:34:20.592Z,1005.12
2023-05-14T11:37:20.591Z,1005.16
2023-05-14T11:40:20.580Z,1005.13
2023-05-14T11:43:20.591Z,1005.1
2023-05-14T11:46:20.624Z,1004.96
2023-05-14T11:49:20.586Z,1004.95
2023-05-14T11:52:20.591Z,1004.9
2023-05-14T11:55:20.587Z,1004.88
2023-05-14T11:58:20.588Z,1004.8
2023-05-14T12:01:20.580Z,1004.82
2023-05-14T12:04:20.632Z,1004.73
2023-05-14T12:07:20.567Z,1004.69
2023-05-14T12:10:20.596Z,1004.69
2023-05-14T12:13:20.578Z,1004.69
2023-05-14T12:16:20.589Z,1004.72
2023-05-14T12:19:20.589Z,1004.59
2023-05-14T12:22:20.573Z,1004.6
2023-05-14T12:25:20.572Z,1004.52
2023-05-14T12:28:20.571Z,1004.5
2023-05-14T12:31:20.590Z,1004.49
2023-05-14T12:34:20.576Z,1004.48
2023-05-14T12:37:20.573Z,1004.45
2023-05-14T12:40:20.562Z,1004.39
2023-05-14T12:43:20.567Z,1004.32
2023-05-14T12:46:20.583Z,1004.35
2023-05-14T12:49:20.581Z,1004.29
2023-05-14T12:52:33.283Z,1004.25
2023-05-14T12:55:20.569Z,1004.18
2023-05-14T12:58:20.558Z,1004.14
2023-05-14T13:01:20.588Z,1004.12
2023-05-14T13:04:20.582Z,1004.07
2023-05-14T13:07:20.569Z,1004.01
2023-05-14T13:10:20.558Z,1003.98
2023-05-14T13:13:20.572Z,1004
2023-05-14T13:16:20.570Z,1003.99
2023-05-14T13:19:20.555Z,1003.92
2023-05-14T13:22:20.564Z,1003.91
2023-05-14T13:25:20.553Z,1003.85
2023-05-14T13:28:20.569Z,1003.83
2023-05-14T13:31:20.639Z,1003.82
2023-05-14T13:34:20.550Z,1003.87
2023-05-14T13:37:20.555Z,1003.77
2023-05-14T13:40:20.559Z,1003.73
2023-05-14T13:43:20.548Z,1003.71
2023-05-14T13:46:20.586Z,1003.63
2023-05-14T13:49:20.558Z,1003.59
2023-05-14T13:52:20.552Z,1003.54
2023-05-14T13:55:20.545Z,1003.53
2023-05-14T13:58:20.551Z,1003.49
2023-05-14T14:01:20.578Z,1003.51
2023-05-14T14:04:20.539Z,1003.46
2023-05-14T14:07:20.538Z,1003.48
2023-05-14T14:10:20.540Z,1003.41
2023-05-14T14:13:20.538Z,1003.39
2023-05-14T14:16:20.562Z,1003.32
2023-05-14T14:19:20.632Z,1003.29
2023-05-14T14:22:20.537Z,1003.17
2023-05-14T14:25:20.576Z,1003.15
2023-05-14T14:28:20.538Z,1003.19
2023-05-14T14:31:20.593Z,1003.21
2023-05-14T14:34:20.529Z,1003.16
2023-05-14T14:37:21.256Z,1003.05
2023-05-14T14:40:20.521Z,1002.97
2023-05-14T14:43:20.530Z,1002.96
2023-05-14T14:46:20.551Z,1003.01
2023-05-14T14:49:20.533Z,1002.94
2023-05-14T14:52:20.516Z,1002.93
2023-05-14T14:55:20.526Z,1002.9
2023-05-14T14:58:20.563Z,1002.91
2023-05-14T15:01:20.541Z,1002.97
2023-05-14T15:04:20.534Z,1002.87
2023-05-14T15:07:20.539Z,1002.82
2023-05-14T15:10:20.613Z,1002.84
2023-05-14T15:13:20.526Z,1002.81
2023-05-14T15:16:20.535Z,1002.81
2023-05-14T15:19:20.519Z,1002.81
2023-05-14T15:22:20.524Z,1002.84
2023-05-14T15:25:20.519Z,1002.84
2023-05-14T15:28:20.512Z,1002.8
2023-05-14T15:31:20.523Z,1002.77
2023-05-14T15:34:20.510Z,1002.74
2023-05-14T15:37:20.521Z,1002.73
2023-05-14T15:40:20.511Z,1002.68
2023-05-14T15:43:20.516Z,1002.73
2023-05-14T15:46:20.520Z,1002.84
2023-05-14T15:49:20.507Z,1002.89
2023-05-14T15:52:20.538Z,1002.95
2023-05-14T15:55:20.510Z,1002.95
2023-05-14T15:58:20.506Z,1002.95
2023-05-14T16:01:20.535Z,1002.98
2023-05-14T16:04:20.532Z,1002.98
2023-05-14T16:07:20.504Z,1002.99
2023-05-14T16:10:20.497Z,1002.95
2023-05-14T16:13:20.499Z,1002.92
2023-05-14T16:16:20.529Z,1002.9
2023-05-14T16:19:20.769Z,1002.83
2023-05-14T16:22:20.493Z,1002.8
2023-05-14T16:25:20.495Z,1002.8
2023-05-14T16:28:20.496Z,1002.82
2023-05-14T16:31:20.507Z,1002.85
2023-05-14T16:34:20.494Z,1002.82
2023-05-14T16:37:20.497Z,1002.8
2023-05-14T16:40:20.501Z,1002.78
2023-05-14T16:43:20.494Z,1002.79
2023-05-14T16:46:20.520Z,1002.8
2023-05-14T16:49:20.484Z,1002.83
2023-05-14T16:52:20.494Z,1002.84
2023-05-14T16:55:20.533Z,1002.81
2023-05-14T16:58:20.474Z,1002.84
2023-05-14T17:01:20.555Z,1002.85
2023-05-14T17:04:20.492Z,1002.85
2023-05-14T17:07:20.482Z,1002.87
2023-05-14T17:10:20.474Z,1002.85
2023-05-14T17:13:20.473Z,1002.88
2023-05-14T17:16:20.509Z,1002.87
2023-05-14T17:19:20.471Z,1002.82
2023-05-14T17:22:20.465Z,1002.75
2023-05-14T17:25:20.482Z,1002.77
2023-05-14T17:28:20.467Z,1002.75
2023-05-14T17:31:20.489Z,1002.76
2023-05-14T17:34:20.475Z,1002.8
2023-05-14T17:37:20.465Z,1002.77
2023-05-14T17:43:20.468Z,1002.79
2023-05-14T17:46:20.503Z,1002.83
2023-05-14T17:49:20.467Z,1002.84
2023-05-14T17:52:20.469Z,1002.85
2023-05-14T17:55:20.473Z,1002.9
2023-05-14T17:58:20.491Z,1002.95
2023-05-14T18:01:20.484Z,1002.95
2023-05-14T18:04:20.475Z,1002.99
2023-05-14T18:07:20.480Z,1002.98
2023-05-14T18:10:20.477Z,1002.98
2023-05-14T18:13:20.499Z,1003.02
2023-05-14T18:16:20.514Z,1003.04
2023-05-14T18:19:20.495Z,1003.06
2023-05-14T18:22:20.532Z,1003.08
2023-05-14T18:25:20.487Z,1003.09
2023-05-14T18:28:20.488Z,1003.1
2023-05-14T18:31:20.525Z,1003.13
2023-05-14T18:34:20.481Z,1003.16
2023-05-14T18:37:20.480Z,1003.16
2023-05-14T18:40:20.622Z,1003.16
2023-05-14T18:43:20.510Z,1003.19
2023-05-14T18:46:20.497Z,1003.22
2023-05-14T18:49:20.474Z,1003.23
2023-05-14T18:52:20.492Z,1003.25
2023-05-14T18:55:20.502Z,1003.28
2023-05-14T18:58:20.474Z,1003.27
2023-05-14T19:01:20.530Z,1003.33
2023-05-14T19:04:20.493Z,1003.34
2023-05-14T19:07:20.478Z,1003.36
2023-05-14T19:10:20.487Z,1003.4
2023-05-14T19:13:20.463Z,1003.39
2023-05-14T19:16:20.505Z,1003.45
2023-05-14T19:19:20.470Z,1003.52
2023-05-14T19:22:20.468Z,1003.49
2023-05-14T19:25:20.648Z,1003.54
2023-05-14T19:28:20.462Z,1003.56
2023-05-14T19:31:20.483Z,1003.61
2023-05-14T19:34:20.464Z,1003.61
2023-05-14T19:37:20.466Z,1003.6
2023-05-14T19:40:20.464Z,1003.6
2023-05-14T19:43:20.578Z,1003.59
2023-05-14T19:46:20.471Z,1003.6
2023-05-14T19:49:20.449Z,1003.57
2023-05-14T19:52:20.464Z,1003.53
2023-05-14T19:55:20.457Z,1003.52
2023-05-14T19:58:20.450Z,1003.51
2023-05-14T20:01:20.478Z,1003.58
2023-05-14T20:04:20.451Z,1003.55
2023-05-14T20:07:20.458Z,1003.56
2023-05-14T20:10:20.452Z,1003.54
2023-05-14T20:13:20.769Z,1003.56
2023-05-14T20:16:20.467Z,1003.52
2023-05-14T20:22:20.447Z,1003.55
2023-05-14T20:25:20.524Z,1003.53
2023-05-14T20:28:20.449Z,1003.53
2023-05-14T20:31:20.466Z,1003.49
2023-05-14T20:34:20.452Z,1003.5
2023-05-14T20:37:20.468Z,1003.46
2023-05-14T20:40:20.497Z,1003.46
2023-05-14T20:43:20.445Z,1003.48
2023-05-14T20:46:20.473Z,1003.5
2023-05-14T20:49:20.436Z,1003.43
2023-05-14T20:52:20.449Z,1003.41
2023-05-14T20:55:20.440Z,1003.41
2023-05-14T20:58:20.447Z,1003.39
2023-05-14T21:04:20.577Z,1003.39
2023-05-14T21:07:20.431Z,1003.37
2023-05-14T21:10:20.512Z,1003.35
2023-05-14T21:13:20.514Z,1003.36
2023-05-14T21:16:20.452Z,1003.36
2023-05-14T21:19:20.472Z,1003.37
2023-05-14T21:22:20.426Z,1003.37
2023-05-14T21:25:20.435Z,1003.33
2023-05-14T21:28:20.419Z,1003.34
2023-05-14T21:31:20.443Z,1003.29
2023-05-14T21:34:20.425Z,1003.28
2023-05-14T21:37:20.413Z,1003.28
2023-05-14T21:40:20.417Z,1003.26
2023-05-14T21:46:20.408Z,1003.23
2023-05-14T21:49:20.400Z,1003.19
2023-05-14T21:52:20.427Z,1003.18
2023-05-14T21:55:20.456Z,1003.15
2023-05-14T21:58:20.405Z,1003.09
2023-05-14T22:01:20.426Z,1003.07
2023-05-14T22:04:20.416Z,1003.01
2023-05-14T22:07:20.401Z,1002.98
2023-05-14T22:10:20.504Z,1002.97
2023-05-14T22:13:20.396Z,1003
2023-05-14T22:16:20.402Z,1002.99
2023-05-14T22:19:20.437Z,1002.99
2023-05-14T22:22:20.389Z,1002.98
2023-05-14T22:25:20.592Z,1002.99
2023-05-14T22:28:20.392Z,1002.94
2023-05-14T22:31:20.508Z,1002.97
2023-05-14T22:34:20.382Z,1003
2023-05-14T22:37:20.381Z,1002.96
2023-05-14T22:40:20.503Z,1002.99
2023-05-14T22:43:20.394Z,1002.99
2023-05-14T22:46:20.502Z,1003.01
2023-05-14T22:49:20.373Z,1003.02
2023-05-14T22:52:20.376Z,1002.99
2023-05-14T22:55:20.401Z,1002.95
2023-05-14T22:58:20.389Z,1002.91
2023-05-14T23:01:20.413Z,1002.91
2023-05-14T23:04:20.379Z,1002.81
2023-05-14T23:07:20.372Z,1002.78
2023-05-14T23:10:20.369Z,1002.73
2023-05-14T23:13:20.361Z,1002.72
2023-05-14T23:16:20.433Z,1002.68
2023-05-14T23:19:20.497Z,1002.68
2023-05-14T23:22:20.712Z,1002.67
2023-05-14T23:25:20.572Z,1002.65
2023-05-14T23:28:20.367Z,1002.64
2023-05-14T23:31:20.360Z,1002.57
2023-05-14T23:34:20.358Z,1002.56
2023-05-14T23:37:20.359Z,1002.52
2023-05-14T23:40:20.479Z,1002.49
2023-05-14T23:43:20.366Z,1002.48
2023-05-14T23:46:20.424Z,1002.45
2023-05-14T23:49:20.355Z,1002.36
2023-05-14T23:52:20.345Z,1002.34
2023-05-14T23:55:20.483Z,1002.33
2023-05-14T23:58:20.352Z,1002.32
